createdAt,value
2023-05-05T00:00:26.926Z,29.72
2023-05-05T00:01:26.965Z,29.68
2023-05-05T00:02:26.991Z,29.70
2023-05-05T00:03:27.043Z,29.72
2023-05-05T00:04:26.920Z,29.69
2023-05-05T00:05:26.966Z,29.73
2023-05-05T00:06:27.332Z,29.75
2023-05-05T00:07:26.958Z,29.72
2023-05-05T00:08:26.966Z,29.75
2023-05-05T00:09:26.949Z,29.72
2023-05-05T00:10:26.956Z,29.72
2023-05-05T00:11:27.874Z,29.70
2023-05-05T00:12:26.934Z,29.72
2023-05-05T00:13:26.969Z,29.77
2023-05-05T00:14:26.955Z,29.76
2023-05-05T00:15:26.963Z,29.73
2023-05-05T00:16:27.020Z,29.75
2023-05-05T00:17:27.030Z,29.75
2023-05-05T00:18:26.945Z,29.75
2023-05-05T00:19:26.946Z,29.75
2023-05-05T00:20:26.944Z,29.79
2023-05-05T00:21:26.959Z,29.80
2023-05-05T00:22:26.987Z,29.75
2023-05-05T00:23:26.972Z,29.76
2023-05-05T00:24:26.994Z,29.78
2023-05-05T00:25:26.985Z,29.77
2023-05-05T00:26:27.104Z,29.72
2023-05-05T00:27:27.006Z,29.77
2023-05-05T00:28:27.019Z,29.76
2023-05-05T00:29:27.075Z,29.75
2023-05-05T00:30:27.066Z,29.77
2023-05-05T00:31:27.095Z,29.79
2023-05-05T00:32:27.088Z,29.76
2023-05-05T00:33:27.032Z,29.81
2023-05-05T00:34:27.081Z,29.81
2023-05-05T00:35:27.109Z,29.77
2023-05-05T00:36:27.089Z,29.79
2023-05-05T00:37:27.098Z,29.82
2023-05-05T00:38:27.127Z,29.77
2023-05-05T00:39:27.099Z,29.75
2023-05-05T00:40:27.116Z,29.81
2023-05-05T00:41:27.100Z,29.84
2023-05-05T00:42:27.191Z,29.83
2023-05-05T00:43:27.112Z,29.78
2023-05-05T00:44:27.135Z,29.78
2023-05-05T00:45:27.143Z,29.80
2023-05-05T00:46:27.335Z,29.80
2023-05-05T00:47:27.187Z,29.78
2023-05-05T00:48:27.155Z,29.82
2023-05-05T00:49:27.204Z,29.80
2023-05-05T00:50:27.162Z,29.80
2023-05-05T00:51:27.173Z,29.80
2023-05-05T00:52:27.230Z,29.82
2023-05-05T00:53:27.210Z,29.84
2023-05-05T00:54:27.198Z,29.81
2023-05-05T00:55:27.205Z,29.86
2023-05-05T00:56:27.243Z,29.83
2023-05-05T00:57:27.229Z,29.86
2023-05-05T00:58:27.234Z,29.83
2023-05-05T00:59:27.265Z,29.85
2023-05-05T01:00:27.294Z,29.84
2023-05-05T01:01:27.396Z,29.82
2023-05-05T01:02:27.334Z,29.83
2023-05-05T01:03:27.320Z,29.82
2023-05-05T01:04:27.308Z,29.82
2023-05-05T01:05:27.311Z,29.85
2023-05-05T01:06:27.325Z,29.81
2023-05-05T01:07:27.312Z,29.82
2023-05-05T01:08:27.325Z,29.81
2023-05-05T01:09:27.327Z,29.88
2023-05-05T01:10:27.598Z,29.91
2023-05-05T01:11:27.385Z,29.87
2023-05-05T01:12:27.332Z,29.89
2023-05-05T01:13:27.332Z,29.89
2023-05-05T01:14:27.367Z,29.87
2023-05-05T01:15:27.380Z,29.88
2023-05-05T01:16:27.421Z,29.89
2023-05-05T01:17:27.382Z,29.94
2023-05-05T01:18:27.384Z,29.88
2023-05-05T01:19:27.378Z,29.85
2023-05-05T01:20:27.398Z,29.88
2023-05-05T01:21:27.432Z,29.89
2023-05-05T01:22:27.415Z,29.88
2023-05-05T01:23:27.416Z,29.91
2023-05-05T01:24:27.409Z,29.92
2023-05-05T01:25:27.429Z,29.89
2023-05-05T01:26:27.423Z,29.89
2023-05-05T01:27:27.462Z,29.93
2023-05-05T01:28:27.457Z,29.93
2023-05-05T01:29:27.486Z,29.91
2023-05-05T01:30:27.506Z,29.92
2023-05-05T01:31:27.508Z,29.89
2023-05-05T01:32:27.502Z,29.91
2023-05-05T01:33:27.506Z,29.89
2023-05-05T01:34:27.548Z,29.96
2023-05-05T01:35:27.507Z,29.96
2023-05-05T01:36:27.523Z,29.93
2023-05-05T01:37:27.557Z,29.96
2023-05-05T01:38:27.552Z,29.91
2023-05-05T01:39:27.571Z,29.93
2023-05-05T01:40:27.604Z,29.92
2023-05-05T01:41:27.616Z,29.92
2023-05-05T01:42:27.616Z,29.96
2023-05-05T01:43:27.614Z,29.92
2023-05-05T01:44:27.646Z,29.99
2023-05-05T01:45:27.663Z,29.96
2023-05-05T01:46:27.648Z,29.98
2023-05-05T01:47:27.687Z,29.93
2023-05-05T01:48:27.710Z,29.92
2023-05-05T01:49:27.697Z,29.95
2023-05-05T01:50:27.702Z,29.91
2023-05-05T01:51:27.737Z,29.96
2023-05-05T01:52:27.725Z,29.93
2023-05-05T01:53:27.723Z,29.92
2023-05-05T01:54:27.744Z,29.97
2023-05-05T01:55:27.794Z,29.95
2023-05-05T01:56:27.809Z,29.94
2023-05-05T01:57:27.812Z,29.95
2023-05-05T01:58:27.806Z,29.96
2023-05-05T01:59:27.836Z,29.92
2023-05-05T02:00:27.853Z,29.94
2023-05-05T02:01:27.888Z,29.92
2023-05-05T02:02:27.903Z,29.97
2023-05-05T02:03:27.885Z,29.96
2023-05-05T02:04:27.900Z,29.93
2023-05-05T02:05:27.900Z,30.00
2023-05-05T02:06:27.881Z,29.99
2023-05-05T02:07:27.928Z,30.00
2023-05-05T02:08:27.894Z,29.96
2023-05-05T02:09:27.921Z,29.97
2023-05-05T02:10:27.920Z,29.97
2023-05-05T02:11:27.974Z,29.96
2023-05-05T02:12:27.923Z,29.99
2023-05-05T02:13:28.012Z,29.97
2023-05-05T02:14:27.971Z,29.99
2023-05-05T02:15:27.988Z,29.97
2023-05-05T02:16:27.990Z,29.99
2023-05-05T02:17:28.012Z,29.99
2023-05-05T02:18:27.998Z,29.96
2023-05-05T02:19:28.032Z,30.05
2023-05-05T02:20:28.000Z,30.00
2023-05-05T02:21:28.028Z,29.99
2023-05-05T02:22:28.056Z,30.00
2023-05-05T02:23:28.459Z,29.97
2023-05-05T02:24:28.078Z,29.99
2023-05-05T02:25:28.076Z,30.03
2023-05-05T02:26:28.122Z,29.97
2023-05-05T02:27:28.103Z,30.01
2023-05-05T02:28:28.158Z,30.00
2023-05-05T02:29:28.159Z,30.01
2023-05-05T02:30:28.198Z,29.97
2023-05-05T02:31:28.242Z,30.04
2023-05-05T02:32:28.213Z,30.01
2023-05-05T02:33:28.201Z,30.05
2023-05-05T02:34:28.212Z,30.04
2023-05-05T02:35:28.237Z,30.00
2023-05-05T02:36:28.321Z,30.04
2023-05-05T02:37:28.257Z,30.04
2023-05-05T02:38:28.267Z,30.01
2023-05-05T02:39:28.293Z,30.04
2023-05-05T02:40:28.347Z,30.01
2023-05-05T02:41:28.318Z,30.02
2023-05-05T02:42:28.318Z,30.01
2023-05-05T02:43:28.318Z,30.00
2023-05-05T02:44:28.357Z,29.99
2023-05-05T02:45:28.362Z,30.02
2023-05-05T02:46:28.440Z,29.99
2023-05-05T02:47:28.424Z,30.05
2023-05-05T02:48:28.422Z,30.04
2023-05-05T02:49:28.429Z,30.07
2023-05-05T02:50:28.445Z,30.08
2023-05-05T02:51:28.483Z,30.03
2023-05-05T02:52:28.468Z,30.05
2023-05-05T02:53:28.489Z,30.04
2023-05-05T02:54:28.505Z,30.04
2023-05-05T02:55:28.513Z,30.08
2023-05-05T02:56:28.541Z,30.02
2023-05-05T02:57:28.545Z,30.07
2023-05-05T02:58:28.617Z,30.07
2023-05-05T02:59:28.584Z,30.07
2023-05-05T03:00:28.615Z,30.05
2023-05-05T03:01:28.688Z,30.08
2023-05-05T03:02:28.706Z,30.07
2023-05-05T03:03:28.792Z,30.11
2023-05-05T03:04:28.673Z,30.09
2023-05-05T03:05:28.712Z,30.07
2023-05-05T03:06:28.720Z,30.05
2023-05-05T03:07:28.711Z,30.07
2023-05-05T03:08:28.749Z,30.11
2023-05-05T03:09:28.762Z,30.08
2023-05-05T03:10:28.753Z,30.08
2023-05-05T03:11:28.798Z,30.13
2023-05-05T03:12:28.827Z,30.04
2023-05-05T03:13:28.837Z,30.02
2023-05-05T03:14:29.570Z,30.09
2023-05-05T03:15:28.880Z,30.05
2023-05-05T03:16:28.888Z,30.08
2023-05-05T03:17:28.950Z,30.08
2023-05-05T03:18:28.926Z,30.14
2023-05-05T03:19:28.955Z,30.12
2023-05-05T03:20:28.963Z,30.07
2023-05-05T03:21:28.984Z,30.05
2023-05-05T03:22:28.994Z,30.08
2023-05-05T03:23:29.030Z,30.08
2023-05-05T03:24:29.059Z,30.07
2023-05-05T03:25:29.081Z,30.07
2023-05-05T03:26:29.091Z,30.11
2023-05-05T03:27:29.126Z,30.11
2023-05-05T03:28:29.174Z,30.08
2023-05-05T03:29:29.179Z,30.10
2023-05-05T03:30:29.188Z,30.08
2023-05-05T03:31:29.248Z,30.10
2023-05-05T03:32:29.257Z,30.12
2023-05-05T03:33:29.419Z,30.09
2023-05-05T03:34:29.267Z,30.09
2023-05-05T03:35:29.315Z,30.10
2023-05-05T03:36:29.616Z,30.12
2023-05-05T03:37:29.344Z,30.11
2023-05-05T03:38:29.371Z,30.11
2023-05-05T03:39:29.380Z,30.09
2023-05-05T03:40:40.454Z,30.10
2023-05-05T03:41:30.387Z,30.09
2023-05-05T03:42:29.392Z,30.16
2023-05-05T03:43:29.388Z,30.11
2023-05-05T03:44:29.378Z,30.11
2023-05-05T03:45:29.403Z,30.12
2023-05-05T03:46:29.399Z,30.09
2023-05-05T03:47:29.355Z,30.14
2023-05-05T03:48:29.355Z,30.09
2023-05-05T03:49:29.322Z,30.09
2023-05-05T03:50:29.324Z,30.16
2023-05-05T03:51:29.358Z,30.13
2023-05-05T03:52:29.307Z,30.10
2023-05-05T03:53:29.345Z,30.13
2023-05-05T03:54:29.297Z,30.16
2023-05-05T03:55:29.280Z,30.15
2023-05-05T03:56:29.292Z,30.19
2023-05-05T03:57:29.323Z,30.16
2023-05-05T03:58:29.337Z,30.16
2023-05-05T03:59:29.365Z,30.13
2023-05-05T04:00:29.385Z,30.12
2023-05-05T04:01:29.414Z,30.15
2023-05-05T04:02:29.457Z,30.17
2023-05-05T04:03:29.507Z,30.13
2023-05-05T04:04:29.553Z,30.16
2023-05-05T04:05:29.503Z,30.14
2023-05-05T04:06:29.536Z,30.20
2023-05-05T04:07:29.525Z,30.16
2023-05-05T04:08:29.585Z,30.17
2023-05-05T04:09:29.579Z,30.16
2023-05-05T04:10:29.714Z,30.16
2023-05-05T04:11:29.659Z,30.14
2023-05-05T04:12:29.661Z,30.17
2023-05-05T04:13:29.699Z,30.12
2023-05-05T04:14:29.699Z,30.17
2023-05-05T04:15:29.733Z,30.12
2023-05-05T04:16:29.806Z,30.19
2023-05-05T04:17:29.834Z,30.16
2023-05-05T04:18:29.823Z,30.12
2023-05-05T04:19:29.840Z,30.13
2023-05-05T04:20:29.862Z,30.17
2023-05-05T04:21:29.916Z,30.16
2023-05-05T04:22:29.923Z,30.16
2023-05-05T04:23:29.971Z,30.16
2023-05-05T04:24:29.989Z,30.13
2023-05-05T04:25:29.994Z,30.13
2023-05-05T04:26:30.008Z,30.12
2023-05-05T04:27:30.058Z,30.13
2023-05-05T04:28:30.062Z,30.17
2023-05-05T04:29:30.084Z,30.16
2023-05-05T04:30:30.149Z,30.12
2023-05-05T04:31:30.577Z,30.10
2023-05-05T04:32:30.215Z,30.15
2023-05-05T04:33:30.202Z,30.13
2023-05-05T04:34:30.266Z,30.15
2023-05-05T04:35:30.280Z,30.10
2023-05-05T04:36:30.264Z,30.16
2023-05-05T04:37:30.313Z,30.16
2023-05-05T04:38:30.455Z,30.16
2023-05-05T04:39:30.433Z,30.11
2023-05-05T04:40:30.418Z,30.16
2023-05-05T04:41:30.487Z,30.13
2023-05-05T04:42:30.470Z,30.14
2023-05-05T04:43:30.487Z,30.12
2023-05-05T04:44:30.518Z,30.16
2023-05-05T04:45:30.531Z,30.12
2023-05-05T04:46:30.563Z,30.13
2023-05-05T04:47:30.604Z,30.12
2023-05-05T04:48:30.609Z,30.11
2023-05-05T04:49:31.498Z,30.12
2023-05-05T04:50:30.622Z,30.11
2023-05-05T04:51:30.976Z,30.12
2023-05-05T04:52:30.701Z,30.12
2023-05-05T04:53:30.695Z,30.08
2023-05-05T04:54:30.743Z,30.15
2023-05-05T04:55:30.743Z,30.11
2023-05-05T04:56:30.803Z,30.12
2023-05-05T04:57:30.798Z,30.11
2023-05-05T04:58:30.983Z,30.07
2023-05-05T04:59:30.836Z,30.07
2023-05-05T05:00:30.857Z,30.08
2023-05-05T05:01:30.913Z,30.07
2023-05-05T05:02:30.960Z,30.07
2023-05-05T05:03:31.050Z,30.06
2023-05-05T05:04:30.974Z,30.13
2023-05-05T05:05:30.984Z,30.09
2023-05-05T05:06:30.993Z,30.07
2023-05-05T05:07:30.993Z,30.04
2023-05-05T05:08:31.028Z,30.08
2023-05-05T05:09:31.026Z,30.04
2023-05-05T05:10:31.103Z,30.01
2023-05-05T05:11:31.087Z,30.06
2023-05-05T05:12:31.129Z,30.04
2023-05-05T05:13:31.124Z,30.03
2023-05-05T05:14:31.137Z,30.06
2023-05-05T05:15:31.170Z,30.04
2023-05-05T05:16:31.212Z,29.99
2023-05-05T05:17:31.252Z,30.06
2023-05-05T05:18:31.259Z,30.06
2023-05-05T05:19:31.267Z,30.03
2023-05-05T05:20:31.260Z,30.01
2023-05-05T05:21:31.246Z,30.10
2023-05-05T05:22:31.260Z,30.06
2023-05-05T05:23:31.296Z,30.01
2023-05-05T05:24:31.321Z,30.06
2023-05-05T05:25:31.345Z,30.03
2023-05-05T05:26:31.365Z,30.02
2023-05-05T05:27:31.366Z,30.03
2023-05-05T05:28:31.385Z,30.06
2023-05-05T05:29:31.450Z,30.06
2023-05-05T05:30:31.422Z,30.09
2023-05-05T05:31:31.528Z,30.03
2023-05-05T05:32:31.492Z,30.03
2023-05-05T05:33:31.484Z,30.03
2023-05-05T05:34:31.500Z,30.27
2023-05-05T05:35:31.524Z,30.18
2023-05-05T05:36:31.521Z,30.57
2023-05-05T05:37:31.551Z,30.99
2023-05-05T05:38:31.546Z,31.07
2023-05-05T05:39:31.533Z,31.74
2023-05-05T05:40:31.564Z,31.81
2023-05-05T05:41:32.009Z,31.85
2023-05-05T05:42:31.528Z,32.17
2023-05-05T05:43:31.655Z,32.56
2023-05-05T05:44:31.514Z,32.73
2023-05-05T05:45:31.530Z,32.97
2023-05-05T05:46:31.674Z,33.07
2023-05-05T05:47:31.681Z,33.23
2023-05-05T05:48:31.717Z,33.54
2023-05-05T05:49:31.747Z,33.63
2023-05-05T05:50:31.795Z,33.37
2023-05-05T05:51:31.888Z,33.35
2023-05-05T05:52:31.916Z,33.42
2023-05-05T05:53:32.004Z,33.39
2023-05-05T05:54:32.060Z,33.40
2023-05-05T05:55:32.142Z,33.49
2023-05-05T05:56:32.206Z,33.50
2023-05-05T05:57:32.236Z,33.42
2023-05-05T05:58:32.232Z,33.47
2023-05-05T05:59:32.284Z,33.50
2023-05-05T06:00:32.333Z,33.40
2023-05-05T06:01:32.438Z,33.37
2023-05-05T06:02:32.461Z,33.39
2023-05-05T06:03:32.550Z,33.48
2023-05-05T06:04:32.554Z,33.49
2023-05-05T06:05:32.649Z,33.45
2023-05-05T06:06:33.005Z,33.50
2023-05-05T06:07:32.589Z,33.46
2023-05-05T06:08:33.012Z,33.46
2023-05-05T06:09:32.706Z,33.53
2023-05-05T06:10:33.038Z,33.50
2023-05-05T06:11:32.763Z,33.47
2023-05-05T06:12:32.838Z,33.51
2023-05-05T06:13:32.790Z,33.44
2023-05-05T06:14:32.851Z,33.52
2023-05-05T06:15:32.808Z,33.44
2023-05-05T06:16:33.074Z,33.44
2023-05-05T06:17:32.857Z,33.43
2023-05-05T06:18:32.869Z,33.50
2023-05-05T06:19:32.896Z,33.47
2023-05-05T06:20:32.909Z,33.44
2023-05-05T06:21:32.874Z,33.47
2023-05-05T06:22:32.946Z,33.33
2023-05-05T06:23:33.035Z,33.35
2023-05-05T06:24:32.968Z,33.34
2023-05-05T06:25:33.000Z,33.32
2023-05-05T06:26:33.040Z,33.32
2023-05-05T06:27:36.008Z,33.32
2023-05-05T06:28:33.655Z,33.26
2023-05-05T06:29:32.984Z,33.29
2023-05-05T06:30:33.004Z,33.22
2023-05-05T06:31:33.016Z,33.29
2023-05-05T06:32:33.015Z,33.23
2023-05-05T06:33:32.993Z,33.23
2023-05-05T06:34:32.946Z,33.16
2023-05-05T06:35:32.967Z,33.15
2023-05-05T06:36:33.026Z,33.21
2023-05-05T06:37:32.943Z,33.18
2023-05-05T06:38:33.038Z,33.16
2023-05-05T06:39:33.077Z,33.14
2023-05-05T06:40:32.946Z,33.10
2023-05-05T06:41:32.948Z,33.07
2023-05-05T06:42:32.913Z,32.97
2023-05-05T06:43:32.997Z,33.04
2023-05-05T06:44:32.885Z,33.06
2023-05-05T06:45:32.886Z,33.07
2023-05-05T06:46:32.871Z,33.06
2023-05-05T06:47:33.082Z,33.04
2023-05-05T06:48:32.865Z,32.96
2023-05-05T06:49:32.856Z,32.95
2023-05-05T06:50:32.849Z,33.00
2023-05-05T06:51:32.830Z,32.99
2023-05-05T06:52:32.830Z,32.96
2023-05-05T06:53:32.876Z,32.92
2023-05-05T06:54:32.813Z,32.86
2023-05-05T06:55:32.798Z,32.89
2023-05-05T06:56:32.818Z,32.89
2023-05-05T06:57:32.853Z,32.84
2023-05-05T06:58:32.784Z,32.82
2023-05-05T06:59:32.790Z,32.86
2023-05-05T07:00:32.811Z,32.86
2023-05-05T07:01:32.786Z,32.84
2023-05-05T07:02:32.758Z,32.81
2023-05-05T07:03:32.849Z,32.81
2023-05-05T07:04:32.788Z,32.82
2023-05-05T07:05:32.754Z,32.75
2023-05-05T07:06:32.751Z,32.74
2023-05-05T07:07:32.741Z,32.76
2023-05-05T07:08:33.058Z,32.78
2023-05-05T07:09:32.774Z,32.77
2023-05-05T07:10:32.704Z,32.77
2023-05-05T07:11:32.702Z,32.71
2023-05-05T07:12:32.776Z,32.71
2023-05-05T07:13:32.707Z,32.73
2023-05-05T07:14:32.660Z,32.74
2023-05-05T07:15:32.711Z,32.73
2023-05-05T07:16:32.760Z,32.68
2023-05-05T07:17:32.696Z,32.63
2023-05-05T07:18:32.731Z,32.66
2023-05-05T07:19:32.898Z,32.66
2023-05-05T07:20:32.652Z,32.69
2023-05-05T07:21:32.641Z,32.62
2023-05-05T07:22:32.626Z,32.66
2023-05-05T07:23:32.634Z,32.62
2023-05-05T07:24:32.627Z,32.59
2023-05-05T07:25:32.715Z,32.61
2023-05-05T07:26:32.599Z,32.59
2023-05-05T07:27:32.585Z,32.68
2023-05-05T07:28:32.613Z,32.57
2023-05-05T07:29:33.041Z,32.54
2023-05-05T07:30:32.603Z,32.57
2023-05-05T07:31:32.629Z,32.51
2023-05-05T07:32:32.602Z,32.75
2023-05-05T07:33:32.646Z,32.80
2023-05-05T07:34:33.139Z,32.96
2023-05-05T07:35:32.686Z,33.34
2023-05-05T07:36:32.760Z,33.51
2023-05-05T07:37:32.814Z,33.63
2023-05-05T07:38:32.862Z,33.85
2023-05-05T07:39:32.917Z,33.88
2023-05-05T07:40:32.978Z,34.13
2023-05-05T07:41:33.094Z,34.32
2023-05-05T07:42:33.112Z,34.44
2023-05-05T07:43:33.096Z,34.65
2023-05-05T07:44:33.116Z,34.84
2023-05-05T07:45:33.127Z,34.85
2023-05-05T07:46:33.180Z,35.00
2023-05-05T07:47:33.227Z,35.05
2023-05-05T07:48:33.173Z,35.13
2023-05-05T07:49:33.219Z,35.40
2023-05-05T07:50:33.219Z,35.42
2023-05-05T07:51:34.494Z,35.48
2023-05-05T07:52:45.408Z,35.57
2023-05-05T07:53:34.164Z,35.78
2023-05-05T07:54:33.271Z,35.88
2023-05-05T07:55:33.207Z,36.02
2023-05-05T07:56:33.157Z,36.15
2023-05-05T07:57:33.229Z,36.18
2023-05-05T07:58:33.153Z,36.26
2023-05-05T07:59:33.118Z,36.86
2023-05-05T08:00:33.180Z,36.76
2023-05-05T08:01:33.219Z,36.88
2023-05-05T08:02:33.412Z,36.87
2023-05-05T08:03:33.521Z,36.96
2023-05-05T08:04:33.423Z,37.12
2023-05-05T08:05:33.454Z,37.30
2023-05-05T08:06:33.477Z,37.67
2023-05-05T08:07:33.611Z,37.72
2023-05-05T08:08:33.604Z,37.98
2023-05-05T08:09:33.618Z,38.05
2023-05-05T08:10:33.657Z,38.06
2023-05-05T08:11:33.720Z,38.29
2023-05-05T08:12:33.872Z,38.15
2023-05-05T08:13:33.792Z,38.22
2023-05-05T08:14:33.749Z,38.33
2023-05-05T08:15:33.908Z,38.43
2023-05-05T08:16:33.879Z,38.71
2023-05-05T08:17:33.932Z,38.71
2023-05-05T08:18:33.872Z,38.77
2023-05-05T08:19:33.852Z,38.79
2023-05-05T08:20:33.871Z,38.98
2023-05-05T08:21:33.905Z,39.34
2023-05-05T08:22:33.923Z,39.38
2023-05-05T08:23:33.907Z,39.49
2023-05-05T08:24:33.964Z,39.56
2023-05-05T08:25:33.885Z,39.48
2023-05-05T08:26:33.890Z,39.41
2023-05-05T08:27:34.054Z,39.07
2023-05-05T08:28:33.927Z,38.79
2023-05-05T08:29:33.985Z,38.95
2023-05-05T08:30:33.966Z,38.93
2023-05-05T08:31:34.028Z,39.01
2023-05-05T08:32:34.079Z,39.14
2023-05-05T08:33:34.007Z,39.09
2023-05-05T08:34:34.053Z,39.14
2023-05-05T08:35:34.073Z,39.27
2023-05-05T08:36:34.089Z,39.18
2023-05-05T08:37:34.170Z,39.27
2023-05-05T08:38:34.190Z,39.24
2023-05-05T08:39:34.323Z,37.74
2023-05-05T08:40:34.280Z,36.15
2023-05-05T08:41:34.340Z,35.47
2023-05-05T08:42:38.790Z,36.17
2023-05-05T08:43:34.431Z,36.09
2023-05-05T08:44:35.047Z,36.54
2023-05-05T08:45:34.551Z,36.19
2023-05-05T08:46:34.426Z,36.21
2023-05-05T08:47:34.466Z,36.32
2023-05-05T08:48:34.359Z,36.49
2023-05-05T08:49:34.356Z,36.85
2023-05-05T08:50:34.430Z,36.84
2023-05-05T08:51:34.381Z,36.96
2023-05-05T08:52:34.582Z,37.08
2023-05-05T08:53:34.317Z,37.03
2023-05-05T08:54:34.559Z,37.27
2023-05-05T08:55:34.347Z,37.59
2023-05-05T08:56:34.336Z,37.78
2023-05-05T08:57:34.377Z,37.72
2023-05-05T08:58:34.575Z,37.65
2023-05-05T08:59:34.423Z,37.83
2023-05-05T09:00:34.389Z,37.92
2023-05-05T09:01:34.641Z,38.06
2023-05-05T09:02:34.461Z,38.28
2023-05-05T09:03:34.464Z,38.41
2023-05-05T09:04:34.419Z,38.45
2023-05-05T09:05:34.429Z,38.46
2023-05-05T09:06:34.394Z,38.11
2023-05-05T09:07:34.416Z,38.34
2023-05-05T09:08:34.440Z,38.27
2023-05-05T09:09:34.457Z,38.28
2023-05-05T09:10:34.506Z,38.22
2023-05-05T09:11:34.486Z,38.25
2023-05-05T09:12:34.632Z,38.22
2023-05-05T09:13:34.576Z,38.32
2023-05-05T09:14:34.709Z,38.34
2023-05-05T09:15:34.692Z,38.37
2023-05-05T09:16:34.844Z,38.44
2023-05-05T09:17:34.933Z,38.44
2023-05-05T09:18:34.880Z,38.42
2023-05-05T09:19:34.947Z,38.42
2023-05-05T09:20:34.971Z,38.46
2023-05-05T09:21:35.043Z,38.45
2023-05-05T09:22:35.091Z,38.40
2023-05-05T09:23:35.152Z,38.63
2023-05-05T09:24:35.255Z,38.76
2023-05-05T09:25:37.101Z,38.69
2023-05-05T09:26:35.331Z,38.69
2023-05-05T09:27:35.392Z,38.80
2023-05-05T09:28:35.472Z,39.12
2023-05-05T09:29:35.542Z,38.87
2023-05-05T09:30:35.604Z,38.83
2023-05-05T09:31:35.628Z,38.93
2023-05-05T09:32:35.932Z,38.78
2023-05-05T09:33:35.824Z,38.70
2023-05-05T09:34:35.820Z,38.50
2023-05-05T09:35:35.865Z,38.48
2023-05-05T09:36:35.937Z,38.48
2023-05-05T09:37:35.961Z,38.08
2023-05-05T09:38:36.041Z,38.31
2023-05-05T09:39:36.076Z,38.22
2023-05-05T09:40:36.138Z,38.24
2023-05-05T09:41:36.177Z,38.22
2023-05-05T09:42:36.186Z,38.32
2023-05-05T09:43:36.248Z,38.47
2023-05-05T09:44:36.585Z,38.57
2023-05-05T09:45:36.319Z,38.70
2023-05-05T09:46:36.417Z,38.82
2023-05-05T09:47:36.493Z,38.99
2023-05-05T09:48:36.495Z,39.06
2023-05-05T09:49:36.724Z,39.17
2023-05-05T09:50:36.536Z,39.37
2023-05-05T09:51:36.597Z,39.37
2023-05-05T09:52:36.681Z,39.21
2023-05-05T09:53:36.691Z,39.16
2023-05-05T09:54:36.705Z,38.77
2023-05-05T09:55:36.768Z,38.81
2023-05-05T09:56:36.815Z,38.69
2023-05-05T09:57:36.887Z,38.52
2023-05-05T09:58:36.933Z,37.96
2023-05-05T09:59:36.944Z,38.10
2023-05-05T10:00:37.000Z,37.81
2023-05-05T10:01:37.067Z,37.92
2023-05-05T10:02:37.126Z,37.76
2023-05-05T10:03:37.119Z,37.42
2023-05-05T10:04:37.198Z,37.38
2023-05-05T10:05:37.267Z,37.19
2023-05-05T10:06:37.275Z,37.03
2023-05-05T10:07:37.325Z,37.10
2023-05-05T10:08:37.387Z,36.71
2023-05-05T10:09:37.395Z,37.00
2023-05-05T10:10:37.465Z,37.00
2023-05-05T10:11:37.542Z,36.89
2023-05-05T10:12:37.664Z,37.05
2023-05-05T10:13:37.595Z,37.15
2023-05-05T10:14:37.668Z,37.31
2023-05-05T10:15:37.737Z,37.49
2023-05-05T10:16:37.759Z,37.64
2023-05-05T10:17:37.852Z,37.69
2023-05-05T10:18:37.856Z,37.84
2023-05-05T10:19:37.887Z,37.88
2023-05-05T10:20:38.081Z,37.90
2023-05-05T10:21:38.989Z,37.94
2023-05-05T10:22:38.013Z,37.97
2023-05-05T10:23:38.070Z,38.11
2023-05-05T10:24:38.124Z,38.17
2023-05-05T10:25:38.141Z,38.34
2023-05-05T10:26:38.184Z,37.81
2023-05-05T10:27:38.255Z,37.77
2023-05-05T10:28:38.659Z,37.89
2023-05-05T10:29:38.333Z,37.94
2023-05-05T10:30:38.354Z,37.57
2023-05-05T10:31:38.422Z,37.45
2023-05-05T10:33:38.589Z,37.40
2023-05-05T10:34:38.542Z,37.50
2023-05-05T10:35:38.494Z,37.63
2023-05-05T10:36:38.452Z,37.60
2023-05-05T10:37:38.592Z,37.63
2023-05-05T10:38:38.475Z,37.72
2023-05-05T10:39:38.420Z,37.74
2023-05-05T10:40:38.428Z,37.75
2023-05-05T10:41:38.417Z,37.75
2023-05-05T10:42:38.399Z,37.76
2023-05-05T10:43:38.594Z,37.80
2023-05-05T10:44:38.603Z,37.79
2023-05-05T10:45:38.437Z,37.78
2023-05-05T10:46:38.468Z,37.78
2023-05-05T10:47:38.444Z,37.82
2023-05-05T10:48:38.428Z,37.84
2023-05-05T10:49:38.629Z,37.88
2023-05-05T10:50:38.346Z,37.83
2023-05-05T10:51:40.397Z,37.87
2023-05-05T10:52:38.371Z,37.87
2023-05-05T10:53:38.438Z,37.90
2023-05-05T10:54:38.700Z,37.95
2023-05-05T10:55:38.383Z,37.95
2023-05-05T10:56:38.365Z,37.96
2023-05-05T10:57:38.370Z,37.92
2023-05-05T10:58:51.028Z,37.88
2023-05-05T10:59:39.402Z,37.87
2023-05-05T11:00:38.419Z,37.86
2023-05-05T11:01:38.422Z,37.93
2023-05-05T11:02:38.405Z,37.86
2023-05-05T11:03:38.403Z,37.87
2023-05-05T11:04:38.369Z,37.86
2023-05-05T11:05:38.365Z,37.86
2023-05-05T11:06:38.353Z,37.91
2023-05-05T11:07:38.338Z,37.85
2023-05-05T11:08:38.373Z,37.86
2023-05-05T11:09:38.421Z,37.91
2023-05-05T11:10:38.367Z,37.88
2023-05-05T11:11:38.296Z,37.91
2023-05-05T11:12:39.012Z,37.87
2023-05-05T11:13:38.334Z,37.82
2023-05-05T11:14:38.302Z,37.85
2023-05-05T11:15:38.310Z,37.81
2023-05-05T11:16:38.321Z,37.79
2023-05-05T11:17:38.293Z,37.86
2023-05-05T11:18:38.277Z,37.85
2023-05-05T11:19:38.341Z,37.79
2023-05-05T11:20:38.242Z,37.81
2023-05-05T11:21:38.286Z,37.83
2023-05-05T11:22:38.323Z,37.79
2023-05-05T11:23:38.664Z,37.74
2023-05-05T11:24:38.351Z,37.81
2023-05-05T11:25:38.564Z,37.75
2023-05-05T11:26:38.402Z,37.75
2023-05-05T11:27:38.431Z,37.74
2023-05-05T11:28:38.508Z,37.72
2023-05-05T11:29:38.544Z,37.71
2023-05-05T11:30:38.495Z,37.68
2023-05-05T11:31:38.647Z,37.72
2023-05-05T11:32:38.591Z,37.76
2023-05-05T11:33:38.605Z,37.70
2023-05-05T11:34:38.615Z,37.69
2023-05-05T11:35:38.680Z,37.69
2023-05-05T11:36:38.690Z,37.69
2023-05-05T11:37:38.727Z,37.72
2023-05-05T11:38:38.742Z,37.68
2023-05-05T11:39:38.756Z,37.68
2023-05-05T11:40:38.814Z,37.68
2023-05-05T11:41:38.835Z,37.66
2023-05-05T11:42:38.861Z,37.71
2023-05-05T11:43:38.974Z,37.68
2023-05-05T11:44:38.949Z,37.69
2023-05-05T11:45:38.968Z,37.70
2023-05-05T11:46:39.030Z,37.64
2023-05-05T11:47:39.074Z,37.63
2023-05-05T11:48:39.075Z,37.64
2023-05-05T11:49:39.098Z,37.66
2023-05-05T11:50:39.159Z,37.68
2023-05-05T11:51:39.168Z,37.59
2023-05-05T11:52:39.234Z,37.66
2023-05-05T11:53:39.255Z,37.63
2023-05-05T11:54:39.293Z,37.59
2023-05-05T11:55:39.324Z,37.57
2023-05-05T11:56:39.368Z,37.58
2023-05-05T11:57:39.451Z,37.53
2023-05-05T11:58:39.461Z,37.54
2023-05-05T11:59:39.485Z,37.52
2023-05-05T12:00:39.563Z,37.54
2023-05-05T12:01:39.582Z,37.48
2023-05-05T12:02:39.654Z,37.51
2023-05-05T12:03:39.789Z,37.56
2023-05-05T12:04:39.740Z,37.54
2023-05-05T12:05:39.770Z,37.55
2023-05-05T12:06:39.775Z,37.55
2023-05-05T12:07:39.822Z,37.54
2023-05-05T12:08:39.863Z,37.52
2023-05-05T12:09:39.942Z,37.52
2023-05-05T12:10:39.962Z,37.51
2023-05-05T12:11:39.995Z,37.56
2023-05-05T12:12:40.172Z,37.56
2023-05-05T12:13:40.195Z,37.53
2023-05-05T12:14:40.127Z,37.52
2023-05-05T12:15:40.173Z,37.46
2023-05-05T12:16:40.245Z,37.47
2023-05-05T12:17:40.348Z,37.46
2023-05-05T12:18:40.302Z,37.41
2023-05-05T12:19:40.378Z,37.45
2023-05-05T12:20:40.388Z,37.42
2023-05-05T12:21:40.428Z,37.36
2023-05-05T12:22:40.504Z,37.37
2023-05-05T12:23:40.557Z,37.36
2023-05-05T12:24:40.579Z,37.36
2023-05-05T12:25:40.637Z,37.31
2023-05-05T12:26:40.673Z,37.30
2023-05-05T12:27:40.707Z,37.28
2023-05-05T12:28:40.754Z,37.28
2023-05-05T12:29:40.787Z,37.33
2023-05-05T12:30:40.873Z,37.31
2023-05-05T12:31:40.887Z,37.28
2023-05-05T12:32:40.963Z,37.28
2023-05-05T12:33:40.978Z,37.27
2023-05-05T12:34:41.015Z,37.29
2023-05-05T12:35:41.105Z,37.23
2023-05-05T12:36:41.111Z,37.23
2023-05-05T12:37:41.181Z,37.19
2023-05-05T12:38:41.207Z,37.26
2023-05-05T12:39:41.234Z,37.24
2023-05-05T12:40:41.284Z,37.23
2023-05-05T12:41:41.317Z,37.21
2023-05-05T12:42:41.384Z,37.17
2023-05-05T12:43:41.409Z,37.15
2023-05-05T12:44:41.481Z,37.13
2023-05-05T12:45:41.564Z,37.14
2023-05-05T12:46:41.547Z,37.09
2023-05-05T12:47:41.600Z,37.13
2023-05-05T12:48:41.674Z,37.13
2023-05-05T12:49:41.671Z,37.13
2023-05-05T12:50:41.729Z,37.11
2023-05-05T12:51:41.760Z,37.10
2023-05-05T12:52:41.817Z,37.05
2023-05-05T12:53:41.848Z,37.09